UIBBUIAA

Guest
Details From UIBB - BRATSK
To UIAA - KADALA
Flight Number -
Tags generated
Created
Modified
Stats Distance 487 nm / 902 km
Max Altitude 35,000 ft / 10,668 m
Waypoints 8
Social Downloads 0
Likes 0
Share VATSIM

Download

Looking for another format? Having issues loading an existing format? Contact us
Advertisement - Login to hide

Notes

Basic altitude profile: - Ascent Rate: 2500ft/min - Ascent Speed: 250kts - Cruise Altitude: 35000ft - Cruise Speed: 420kts - Descent Rate: 1500ft/min - Descent Speed: 250kts Options: - Use NATs: yes - Use PACOTS: yes - Use low airways: yes - Use high airways: yes

Route

UIBB AKIRU B478 UIAA

ID Type Via Altitude Latitude Longitude Leg Dist Tot Dist Heading (true) Name
O UIBB APT - 0 ft / 0 m 56.37016˚ 101.70295˚ - 0 nm - BRATSK
AKIRU FIX - 21,700 ft / 6,614 m 55.70500˚ 103.18000˚ 63 nm 63 nm 128° / 129° -
AVIBI FIX B478 (AWY-HI) 35,000 ft / 10,668 m 55.10833˚ 104.49167˚ 57 nm 120 nm 128° / 129° -
MX NDB B478 (AWY-HI) 35,000 ft / 10,668 m 54.80000˚ 105.15000˚ 29 nm 150 nm 129° / 129° -
RIMLA FIX B478 (AWY-HI) 29,900 ft / 9,114 m 53.13722˚ 109.95694˚ 196 nm 347 nm 118° / 122° -
DIROL FIX B478 (AWY-HI) 27,300 ft / 8,321 m 52.90833˚ 110.54833˚ 25 nm 372 nm 123° / 123° -
NERKA FIX B478 (AWY-HI) 27,300 ft / 8,321 m 52.51722˚ 111.53361˚ 42 nm 415 nm 123° / 124° -
O UIAA APT B478 (AWY-LO) 27,300 ft / 8,321 m 52.02758˚ 113.30166˚ 71 nm 486 nm 114° / 115° KADALA

Altitude Profile

Advertisement - Login to hide

Weather


0- 5 10 15 20 25 30 35+ Temperature / ° C

Clouds and Precipitation
Forecast for 2017-12-16 00:00 UTC. Updated an hour ago

Ground ~20,000 ft ~40,000 ft Winds

UIBB

Details ICAO UIBB (BTK)
Name BRATSK
Region Russia
Timezone Asia/Irkutsk (UTC+8.0)
Stats Elevation 1,610 ft / 491 m (AMSL)
Location 56.370157° 101.702949°
Runways 2
Magnetic Variation 2.056° W

METAR

UIBB 152200Z 28008MPS 5000 -SHSN OVC042CB M11/M15 Q1027 RESHSN R30/452037 NOSIG RMK QFE727/0969

Decode

TAF

TAF UIBB 152000Z 1521/1621 26005MPS 5000 -SHSN DRSN BKN011CB TEMPO 1521/1618 28010MPS 1900 SHSN BLSN

Decode

Departure Runways

ID Width Length Bearing (true) Bearing (mag) Surface Threshold Offset Overrun Length
12 197 ft / 60 m 10,335 ft / 3,150 m 114.88° 116.94° Concrete 0 ft / 0 m 246 ft / 75 m
12L 246 ft / 75 m 6,568 ft / 2,002 m 114.60° 116.66° Grass 0 ft / 0 m 0 ft / 0 m
30 197 ft / 60 m 10,335 ft / 3,150 m 294.92° 296.98° Concrete 0 ft / 0 m 246 ft / 75 m
30R 246 ft / 75 m 6,568 ft / 2,002 m 294.62° 296.68° Grass 0 ft / 0 m 0 ft / 0 m

UIAA

Details ICAO UIAA (HTA)
Name KADALA
Region Russia
Timezone Asia/Yakutsk (UTC+9.0)
Stats Elevation 2,272 ft / 693 m (AMSL)
Location 52.027585° 113.301664°
Runways 2
Magnetic Variation 8.443° W

METAR

UIAA 152200Z 21005MPS 9999 NSC M19/M23 Q1024 R29/490150 NOSIG RMK QFE709/0946

Decode

TAF

TAF UIAA 152000Z 1521/1621 26003G09MPS 9999 BKN030CB= TAF UIBB 152000Z 1521/1621 26005MPS 5000 -SHSN DRSN BKN011CB TEMPO 1521/1618 28010MPS 1900 SHSN BLSN

Decode

Destination Runways

ID Width Length Bearing (true) Bearing (mag) Surface Threshold Offset Overrun Length
11 184 ft / 56 m 9,161 ft / 2,792 m 100.52° 108.96° Concrete 0 ft / 0 m 240 ft / 73 m
11L 246 ft / 75 m 5,844 ft / 1,781 m 101.22° 109.66° Grass 0 ft / 0 m 0 ft / 0 m
29 184 ft / 56 m 9,161 ft / 2,792 m 280.56° 289.00° Concrete 0 ft / 0 m 246 ft / 75 m
29R 246 ft / 75 m 5,844 ft / 1,781 m 281.24° 289.68° Grass 0 ft / 0 m 0 ft / 0 m

Approach Navaids

Runway Type Ident Frequency Range Bearing (true) Bearing (mag) Slope Elevation
29 Localiser IDG 110.30 MHz 18 nm / 33 km 280.63° 289.08° - 2,282 ft / 696 m (AMSL)
29 Glidescope IDG 110.30 MHz 10 nm / 19 km 280.54° 288.98° 3.50° 2,272 ft / 693 m (AMSL)